createdAt,value
2019-03-16T00:00:46.436Z,1.77
2019-03-16T00:03:15.261Z,2.33
2019-03-16T00:05:44.005Z,2.07
2019-03-16T00:08:12.738Z,2.07
2019-03-16T00:10:41.452Z,2.70
2019-03-16T00:13:11.706Z,2.47
2019-03-16T00:15:42.756Z,2.07
2019-03-16T00:18:11.561Z,1.80
2019-03-16T00:20:43.291Z,1.63
2019-03-16T00:23:13.769Z,2.07
2019-03-16T00:25:42.410Z,2.10
2019-03-16T00:28:12.950Z,2.00
2019-03-16T00:30:41.527Z,2.10
2019-03-16T00:33:10.446Z,1.80
2019-03-16T00:35:39.138Z,1.90
2019-03-16T00:38:09.677Z,1.87
2019-03-16T00:40:40.038Z,1.47
2019-03-16T00:43:08.708Z,2.13
2019-03-16T00:45:37.775Z,1.40
2019-03-16T00:48:09.634Z,1.73
2019-03-16T00:50:38.266Z,1.50
2019-03-16T00:53:06.894Z,1.60
2019-03-16T00:55:36.051Z,1.90
2019-03-16T00:58:04.761Z,1.67
2019-03-16T01:00:33.511Z,2.40
2019-03-16T01:03:02.237Z,2.30
2019-03-16T01:05:30.942Z,1.30
2019-03-16T01:07:59.982Z,1.80
2019-03-16T01:10:28.672Z,1.87
2019-03-16T01:12:57.251Z,1.93
2019-03-16T01:15:25.894Z,1.73
2019-03-16T01:17:54.498Z,1.90
2019-03-16T01:20:23.142Z,1.90
2019-03-16T01:22:51.895Z,1.87
2019-03-16T01:25:21.769Z,1.77
2019-03-16T01:27:50.496Z,1.33
2019-03-16T01:30:19.814Z,2.30
2019-03-16T01:32:48.555Z,2.50
2019-03-16T01:35:21.675Z,1.83
2019-03-16T01:37:50.737Z,1.70
2019-03-16T01:40:19.486Z,1.60
2019-03-16T01:42:48.638Z,1.50
2019-03-16T01:45:17.289Z,3.27
2019-03-16T01:47:46.024Z,1.67
2019-03-16T01:50:16.268Z,1.40
2019-03-16T01:52:57.140Z,2.00
2019-03-16T01:55:25.853Z,1.27
2019-03-16T01:57:55.273Z,1.60
2019-03-16T02:00:25.441Z,1.60
2019-03-16T02:02:55.819Z,1.57
2019-03-16T02:05:24.535Z,1.80
2019-03-16T02:07:54.663Z,1.43
2019-03-16T02:10:23.571Z,1.67
2019-03-16T02:12:54.898Z,2.73
2019-03-16T02:15:23.839Z,1.93
2019-03-16T02:17:52.706Z,2.03
2019-03-16T02:20:21.382Z,1.50
2019-03-16T02:22:50.127Z,1.53
2019-03-16T02:25:18.840Z,2.07
2019-03-16T02:27:47.543Z,1.60
2019-03-16T02:30:16.702Z,2.00
2019-03-16T02:32:45.379Z,1.77
2019-03-16T02:35:14.783Z,1.57
2019-03-16T02:37:43.458Z,2.07
2019-03-16T02:40:12.159Z,1.63
2019-03-16T02:42:40.875Z,1.43
2019-03-16T02:45:10.367Z,1.67
2019-03-16T02:47:38.995Z,1.47
2019-03-16T02:50:09.512Z,2.03
2019-03-16T02:52:38.125Z,1.27
2019-03-16T02:55:08.772Z,1.47
2019-03-16T02:57:37.573Z,1.97
2019-03-16T03:00:13.304Z,1.70
2019-03-16T03:02:41.864Z,1.60
2019-03-16T03:05:11.243Z,1.10
2019-03-16T03:07:39.885Z,1.83
2019-03-16T03:10:14.276Z,2.07
2019-03-16T03:12:42.910Z,2.60
2019-03-16T03:15:11.654Z,1.47
2019-03-16T03:17:40.289Z,1.50
2019-03-16T03:20:09.937Z,2.37
2019-03-16T03:22:40.001Z,2.23
2019-03-16T03:25:08.714Z,1.70
2019-03-16T03:27:37.425Z,1.60
2019-03-16T03:30:11.661Z,2.10
2019-03-16T03:32:40.357Z,1.87
2019-03-16T03:35:11.380Z,2.53
2019-03-16T03:37:40.221Z,2.47
2019-03-16T03:40:10.678Z,2.00
2019-03-16T03:42:39.401Z,1.90
2019-03-16T03:45:11.487Z,2.03
2019-03-16T03:47:40.136Z,1.57
2019-03-16T03:50:18.038Z,2.00
2019-03-16T03:52:46.733Z,2.43
2019-03-16T03:55:15.642Z,2.10
2019-03-16T03:57:46.084Z,2.33
2019-03-16T04:00:20.745Z,1.77
2019-03-16T04:02:49.468Z,2.27
2019-03-16T04:05:18.270Z,2.27
2019-03-16T04:07:48.059Z,1.60
2019-03-16T04:10:17.027Z,2.43
2019-03-16T04:12:46.442Z,1.53
2019-03-16T04:15:17.149Z,2.00
2019-03-16T04:17:45.658Z,1.70
2019-03-16T04:20:15.319Z,1.90
2019-03-16T04:22:44.015Z,2.27
2019-03-16T04:25:12.740Z,2.30
2019-03-16T04:27:44.593Z,1.93
2019-03-16T04:30:13.611Z,2.30
2019-03-16T04:32:43.887Z,2.40
2019-03-16T04:35:13.378Z,3.23
2019-03-16T04:37:43.368Z,2.07
2019-03-16T04:40:14.516Z,2.00
2019-03-16T04:42:42.976Z,2.13
2019-03-16T04:45:13.620Z,2.40
2019-03-16T04:47:43.460Z,2.60
2019-03-16T04:50:13.297Z,2.07
2019-03-16T04:52:41.961Z,2.20
2019-03-16T04:55:10.987Z,2.47
2019-03-16T04:57:39.702Z,2.43
2019-03-16T05:00:20.584Z,2.57
2019-03-16T05:02:55.506Z,2.20
2019-03-16T05:05:24.134Z,1.83
2019-03-16T05:07:52.904Z,1.90
2019-03-16T05:10:21.593Z,2.00
2019-03-16T05:12:50.366Z,2.07
2019-03-16T05:15:24.471Z,2.00
2019-03-16T05:17:53.203Z,1.50
2019-03-16T05:20:21.924Z,1.77
2019-03-16T05:22:50.694Z,1.97
2019-03-16T05:25:19.364Z,1.70
2019-03-16T05:27:47.998Z,2.10
2019-03-16T05:30:16.640Z,1.50
2019-03-16T05:32:45.316Z,1.80
2019-03-16T05:35:14.315Z,2.23
2019-03-16T05:37:43.036Z,1.63
2019-03-16T05:40:12.194Z,2.03
2019-03-16T05:42:40.982Z,1.50
2019-03-16T05:45:10.084Z,1.70
2019-03-16T05:47:39.635Z,1.50
2019-03-16T05:50:11.320Z,2.63
2019-03-16T05:52:42.721Z,1.97
2019-03-16T05:55:11.760Z,1.83
2019-03-16T05:57:40.384Z,1.57
2019-03-16T06:00:15.833Z,1.27
2019-03-16T06:02:44.461Z,1.73
2019-03-16T06:05:13.161Z,2.07
2019-03-16T06:07:41.844Z,1.80
2019-03-16T06:10:12.957Z,1.37
2019-03-16T06:12:41.597Z,1.90
2019-03-16T06:15:12.984Z,1.67
2019-03-16T06:17:41.613Z,1.90
2019-03-16T06:20:12.709Z,1.60
2019-03-16T06:22:41.371Z,1.80
2019-03-16T06:25:10.656Z,1.20
2019-03-16T06:27:39.290Z,2.33
2019-03-16T06:30:10.971Z,1.80
2019-03-16T06:32:39.613Z,2.10
2019-03-16T06:35:08.650Z,1.90
2019-03-16T06:37:37.329Z,2.30
2019-03-16T06:40:08.635Z,1.80
2019-03-16T06:42:37.263Z,2.13
2019-03-16T06:45:08.935Z,1.90
2019-03-16T06:47:37.571Z,1.70
2019-03-16T06:50:09.241Z,2.03
2019-03-16T06:52:38.053Z,2.13
2019-03-16T06:55:07.764Z,2.00
2019-03-16T06:57:36.393Z,1.90
2019-03-16T07:00:10.617Z,2.10
2019-03-16T07:02:39.325Z,2.03
2019-03-16T07:05:10.876Z,2.13
2019-03-16T07:07:39.587Z,2.20
2019-03-16T07:10:11.072Z,2.30
2019-03-16T07:12:42.623Z,2.53
2019-03-16T07:15:12.753Z,2.70
2019-03-16T07:17:41.467Z,2.77
2019-03-16T07:20:16.448Z,2.37
2019-03-16T07:22:45.265Z,2.40
2019-03-16T07:25:13.921Z,2.63
2019-03-16T07:27:42.632Z,2.83
2019-03-16T07:30:15.025Z,2.50
2019-03-16T07:32:43.689Z,2.90
2019-03-16T07:35:12.437Z,4.10
2019-03-16T07:37:47.349Z,2.40
2019-03-16T07:40:16.255Z,2.57
2019-03-16T07:42:44.922Z,2.87
2019-03-16T07:45:13.798Z,3.43
2019-03-16T07:47:54.571Z,2.87
2019-03-16T07:50:23.216Z,3.23
2019-03-16T07:52:51.971Z,3.90
2019-03-16T07:55:20.641Z,2.77
2019-03-16T07:57:49.347Z,3.30
2019-03-16T08:00:18.056Z,3.57
2019-03-16T08:02:46.807Z,3.07
2019-03-16T08:05:19.434Z,3.30
2019-03-16T08:07:46.631Z,4.50
2019-03-16T08:10:15.447Z,3.37
2019-03-16T08:12:44.333Z,3.77
2019-03-16T08:15:14.190Z,3.73
2019-03-16T08:17:43.186Z,3.50
2019-03-16T08:20:12.673Z,3.83
2019-03-16T08:22:41.387Z,4.30
2019-03-16T08:25:11.986Z,4.20
2019-03-16T08:27:52.992Z,4.63
2019-03-16T08:30:12.725Z,4.30
2019-03-16T08:32:41.409Z,4.53
2019-03-16T08:35:10.243Z,4.20
2019-03-16T08:37:40.904Z,3.83
2019-03-16T08:40:11.314Z,4.83
2019-03-16T08:42:39.987Z,4.30
2019-03-16T08:45:12.842Z,4.57
2019-03-16T08:47:41.485Z,4.70
2019-03-16T08:50:12.132Z,4.30
2019-03-16T08:52:40.909Z,5.30
2019-03-16T08:55:11.961Z,4.27
2019-03-16T08:57:40.642Z,3.80
2019-03-16T09:00:13.924Z,3.70
2019-03-16T09:02:42.620Z,4.37
2019-03-16T09:05:15.803Z,3.53
2019-03-16T09:07:44.722Z,3.63
2019-03-16T09:10:15.886Z,3.40
2019-03-16T09:12:54.364Z,3.40
2019-03-16T09:15:18.128Z,3.97
2019-03-16T09:17:46.688Z,2.63
2019-03-16T09:20:15.558Z,3.13
2019-03-16T09:22:44.359Z,3.13
2019-03-16T09:25:17.711Z,3.97
2019-03-16T09:27:46.432Z,3.70
2019-03-16T09:30:17.367Z,3.30
2019-03-16T09:32:47.848Z,4.10
2019-03-16T09:35:20.872Z,4.70
2019-03-16T09:37:49.528Z,4.07
2019-03-16T09:40:20.634Z,4.30
2019-03-16T09:42:54.439Z,4.07
2019-03-16T09:45:24.634Z,4.30
2019-03-16T09:47:53.293Z,4.50
2019-03-16T09:50:21.957Z,4.67
2019-03-16T09:52:53.541Z,4.03
2019-03-16T09:55:22.460Z,4.27
2019-03-16T09:57:57.824Z,4.43
2019-03-16T10:00:26.829Z,4.27
2019-03-16T10:02:56.906Z,3.93
2019-03-16T10:05:31.533Z,3.97
2019-03-16T10:08:01.795Z,3.80
2019-03-16T10:10:30.429Z,4.10
2019-03-16T10:13:03.437Z,4.30
2019-03-16T10:15:34.818Z,4.10
2019-03-16T10:18:03.523Z,4.07
2019-03-16T10:20:33.996Z,3.87
2019-03-16T10:23:18.349Z,3.50
2019-03-16T10:25:35.735Z,3.10
2019-03-16T10:28:07.424Z,3.43
2019-03-16T10:30:36.359Z,2.90
2019-03-16T10:33:11.150Z,3.70
2019-03-16T10:35:39.962Z,3.10
2019-03-16T10:38:09.750Z,2.83
2019-03-16T10:40:38.755Z,2.83
2019-03-16T10:43:12.086Z,2.60
2019-03-16T10:45:44.040Z,2.43
2019-03-16T10:48:12.318Z,2.43
2019-03-16T10:50:40.977Z,2.20
2019-03-16T10:53:12.320Z,2.70
2019-03-16T10:55:40.905Z,2.77
2019-03-16T10:58:09.621Z,2.00
2019-03-16T11:00:41.389Z,2.60
2019-03-16T11:03:16.253Z,1.90
2019-03-16T11:05:46.623Z,2.60
2019-03-16T11:08:17.326Z,2.10
2019-03-16T11:10:54.821Z,2.23
2019-03-16T11:13:25.741Z,1.70
2019-03-16T11:15:56.611Z,1.53
2019-03-16T11:18:27.849Z,1.80
2019-03-16T11:20:58.635Z,1.83
2019-03-16T11:23:30.908Z,1.70
2019-03-16T11:26:02.283Z,1.63
2019-03-16T11:28:33.028Z,1.77
2019-03-16T11:31:05.977Z,1.77
2019-03-16T11:33:34.879Z,1.70
2019-03-16T11:36:03.582Z,1.63
2019-03-16T11:38:32.603Z,1.70
2019-03-16T11:41:03.532Z,1.77
2019-03-16T11:43:32.279Z,2.00
2019-03-16T11:46:01.035Z,1.60
2019-03-16T11:48:31.785Z,1.73
2019-03-16T11:51:06.905Z,1.60
2019-03-16T11:53:38.345Z,1.60
2019-03-16T11:56:17.451Z,1.43
2019-03-16T11:58:39.010Z,1.33
2019-03-16T12:01:12.311Z,1.43
2019-03-16T12:03:48.427Z,1.50
2019-03-16T12:06:17.039Z,1.20
2019-03-16T12:08:47.296Z,0.90
2019-03-16T12:11:16.249Z,1.10
2019-03-16T12:13:49.673Z,0.90
2019-03-16T12:16:22.641Z,1.03
2019-03-16T12:18:51.299Z,1.13
2019-03-16T12:21:20.235Z,0.90
2019-03-16T12:23:48.972Z,0.70
2019-03-16T12:26:20.029Z,0.70
2019-03-16T12:28:48.495Z,1.00
2019-03-16T12:31:20.328Z,0.93
2019-03-16T12:33:52.550Z,0.90
2019-03-16T12:36:23.659Z,0.90
2019-03-16T12:38:52.300Z,0.83
2019-03-16T12:41:21.311Z,0.80
2019-03-16T12:43:49.963Z,1.20
2019-03-16T12:46:18.665Z,0.70
2019-03-16T12:48:50.837Z,0.73
2019-03-16T12:51:19.806Z,2.17
2019-03-16T12:53:51.743Z,3.33
2019-03-16T12:56:20.782Z,2.43
2019-03-16T12:58:53.229Z,0.80
2019-03-16T13:01:21.871Z,0.80
2019-03-16T13:03:51.762Z,0.60
2019-03-16T13:06:22.279Z,0.80
2019-03-16T13:08:52.786Z,0.40
2019-03-16T13:11:21.994Z,4.60
2019-03-16T13:13:50.625Z,0.53
2019-03-16T13:16:19.437Z,0.53
2019-03-16T13:18:48.269Z,0.40
2019-03-16T13:21:16.985Z,0.40
2019-03-16T13:23:47.402Z,0.40
2019-03-16T13:26:16.119Z,0.60
2019-03-16T13:28:44.995Z,0.53
2019-03-16T13:31:13.885Z,1.00
2019-03-16T13:33:46.113Z,0.60
2019-03-16T13:36:15.236Z,0.60
2019-03-16T13:38:46.679Z,0.50
2019-03-16T13:41:15.316Z,0.50
2019-03-16T13:43:45.095Z,0.70
2019-03-16T13:46:13.792Z,0.70
2019-03-16T13:48:44.750Z,0.80
2019-03-16T13:51:16.487Z,0.83
2019-03-16T13:53:45.968Z,0.70
2019-03-16T13:56:14.984Z,0.90
2019-03-16T13:58:47.821Z,1.00
2019-03-16T14:01:16.957Z,0.80
2019-03-16T14:03:45.672Z,0.70
2019-03-16T14:06:14.816Z,0.70
2019-03-16T14:08:48.812Z,0.80
2019-03-16T14:11:17.710Z,0.70
2019-03-16T14:13:46.603Z,0.80
2019-03-16T14:16:18.728Z,0.87
2019-03-16T14:18:50.413Z,0.80
2019-03-16T14:21:20.890Z,1.00
2019-03-16T14:23:50.222Z,2.07
2019-03-16T14:26:26.200Z,1.20
2019-03-16T14:28:56.260Z,0.77
2019-03-16T14:31:28.950Z,0.83
2019-03-16T14:34:00.703Z,1.10
2019-03-16T14:36:29.734Z,0.70
2019-03-16T14:38:58.397Z,0.80
2019-03-16T14:41:32.641Z,1.27
2019-03-16T14:44:05.997Z,0.93
2019-03-16T14:46:34.608Z,1.20
2019-03-16T14:49:06.034Z,1.33
2019-03-16T14:51:34.742Z,0.50
2019-03-16T14:54:04.061Z,0.80
2019-03-16T14:56:33.877Z,0.60
2019-03-16T14:59:02.509Z,1.03
2019-03-16T15:01:33.954Z,0.70
2019-03-16T15:04:02.663Z,0.93
2019-03-16T15:06:31.378Z,0.90
2019-03-16T15:09:01.573Z,0.67
2019-03-16T15:11:31.855Z,0.70
2019-03-16T15:14:01.290Z,0.70
2019-03-16T15:16:29.971Z,0.60
2019-03-16T15:18:58.610Z,0.67
2019-03-16T15:21:27.283Z,0.70
2019-03-16T15:24:13.641Z,0.80
2019-03-16T15:26:42.293Z,0.80
2019-03-16T15:29:10.967Z,0.70
2019-03-16T15:31:39.542Z,0.90
2019-03-16T15:34:08.201Z,0.70
2019-03-16T15:36:36.915Z,0.90
2019-03-16T15:39:07.247Z,0.90
2019-03-16T15:41:37.421Z,0.73
2019-03-16T15:44:06.385Z,0.90
2019-03-16T15:46:35.128Z,0.90
2019-03-16T15:49:03.941Z,0.90
2019-03-16T15:51:33.670Z,0.60
2019-03-16T15:54:02.436Z,0.60
2019-03-16T15:56:31.159Z,1.13
2019-03-16T15:58:59.997Z,0.80
2019-03-16T16:01:28.706Z,0.90
2019-03-16T16:03:59.423Z,1.33
2019-03-16T16:06:29.715Z,1.00
2019-03-16T16:08:58.316Z,1.00
2019-03-16T16:11:27.134Z,1.10
2019-03-16T16:13:56.217Z,1.10
2019-03-16T16:16:25.553Z,1.20
2019-03-16T16:18:54.167Z,1.20
2019-03-16T16:21:29.939Z,1.20
2019-03-16T16:23:58.908Z,1.20
2019-03-16T16:26:27.636Z,1.30
2019-03-16T16:28:56.566Z,1.00
2019-03-16T16:31:30.845Z,1.03
2019-03-16T16:34:18.846Z,0.87
2019-03-16T16:36:48.257Z,1.13
2019-03-16T16:39:18.395Z,0.93
2019-03-16T16:41:51.152Z,1.10
2019-03-16T16:44:19.805Z,0.90
2019-03-16T16:46:48.931Z,1.20
2019-03-16T16:49:18.717Z,1.10
2019-03-16T16:51:50.187Z,0.90
2019-03-16T16:54:18.974Z,0.90
2019-03-16T16:56:47.699Z,0.90
2019-03-16T16:59:16.582Z,1.00
2019-03-16T17:01:45.234Z,0.83
2019-03-16T17:04:14.464Z,1.03
2019-03-16T17:06:48.451Z,1.20
2019-03-16T17:09:17.122Z,1.37
2019-03-16T17:11:45.858Z,0.73
2019-03-16T17:14:14.847Z,1.20
2019-03-16T17:16:46.838Z,0.77
2019-03-16T17:19:17.155Z,1.07
2019-03-16T17:21:46.243Z,0.97
2019-03-16T17:24:17.139Z,1.30
2019-03-16T17:26:45.801Z,1.20
2019-03-16T17:29:17.326Z,1.27
2019-03-16T17:31:46.273Z,1.33
2019-03-16T17:34:15.262Z,1.10
2019-03-16T17:36:43.838Z,1.93
2019-03-16T17:39:13.328Z,1.10
2019-03-16T17:41:41.968Z,1.20
2019-03-16T17:44:10.548Z,1.50
2019-03-16T17:46:39.286Z,1.00
2019-03-16T17:49:10.867Z,1.40
2019-03-16T17:51:41.117Z,1.20
2019-03-16T17:54:13.607Z,1.40
2019-03-16T17:56:42.242Z,2.30
2019-03-16T17:59:12.420Z,2.50
2019-03-16T18:01:54.588Z,1.73
2019-03-16T18:04:21.792Z,1.93
2019-03-16T18:06:50.620Z,2.47
2019-03-16T18:09:21.798Z,5.70
2019-03-16T18:11:50.436Z,1.83
2019-03-16T18:14:21.860Z,2.47
2019-03-16T18:16:54.890Z,2.57
2019-03-16T18:19:26.224Z,2.10
2019-03-16T18:21:56.431Z,2.03
2019-03-16T18:24:28.218Z,1.63
2019-03-16T18:26:58.474Z,2.27
2019-03-16T18:29:27.205Z,2.20
2019-03-16T18:32:07.844Z,2.60
2019-03-16T18:34:32.883Z,3.20
2019-03-16T18:37:01.622Z,2.17
2019-03-16T18:39:33.123Z,2.60
2019-03-16T18:42:07.895Z,2.50
2019-03-16T18:44:36.594Z,2.80
2019-03-16T18:47:07.660Z,2.67
2019-03-16T18:49:42.878Z,2.23
2019-03-16T18:52:16.844Z,2.47
2019-03-16T18:54:47.603Z,3.50
2019-03-16T18:57:18.406Z,2.60
2019-03-16T18:59:48.360Z,10.43
2019-03-16T19:02:20.906Z,3.13
2019-03-16T19:04:54.628Z,2.80
2019-03-16T19:07:25.112Z,2.50
2019-03-16T19:09:54.207Z,2.27
2019-03-16T19:12:26.034Z,3.00
2019-03-16T19:14:57.693Z,2.40
2019-03-16T19:17:26.415Z,2.37
2019-03-16T19:20:01.791Z,2.70
2019-03-16T19:22:30.986Z,2.90
2019-03-16T19:24:59.704Z,2.63
2019-03-16T19:27:30.243Z,2.40
2019-03-16T19:29:58.924Z,2.33
2019-03-16T19:32:33.525Z,2.23
2019-03-16T19:34:59.500Z,2.60
2019-03-16T19:37:38.870Z,1.90
2019-03-16T19:40:13.843Z,2.40
2019-03-16T19:42:46.555Z,2.10
2019-03-16T19:45:14.339Z,2.43
2019-03-16T19:47:44.591Z,2.40
2019-03-16T19:50:17.848Z,3.43
2019-03-16T19:52:49.487Z,2.40
2019-03-16T19:55:18.221Z,2.60
2019-03-16T19:57:53.031Z,2.20
2019-03-16T20:00:21.851Z,3.27
2019-03-16T20:02:51.709Z,2.60
2019-03-16T20:05:20.713Z,3.30
2019-03-16T20:07:52.415Z,3.13
2019-03-16T20:10:25.770Z,2.73
2019-03-16T20:12:56.447Z,3.00
2019-03-16T20:15:30.678Z,2.87
2019-03-16T20:17:59.278Z,2.93
2019-03-16T20:20:27.915Z,2.57
2019-03-16T20:22:56.659Z,2.60
2019-03-16T20:25:27.827Z,2.60
2019-03-16T20:28:02.311Z,2.60
2019-03-16T20:30:34.283Z,3.03
2019-03-16T20:33:04.367Z,3.10
2019-03-16T20:35:33.461Z,3.30
2019-03-16T20:38:02.123Z,3.00
2019-03-16T20:40:30.794Z,4.03
2019-03-16T20:42:59.423Z,3.27
2019-03-16T20:45:30.494Z,3.40
2019-03-16T20:47:59.715Z,3.50
2019-03-16T20:50:30.338Z,2.77
2019-03-16T20:53:05.700Z,2.90
2019-03-16T20:55:34.552Z,2.50
2019-03-16T20:58:06.755Z,2.83
2019-03-16T21:00:38.652Z,2.57
2019-03-16T21:03:16.112Z,2.57
2019-03-16T21:05:42.416Z,2.50
2019-03-16T21:08:15.396Z,2.80
2019-03-16T21:10:44.509Z,2.77
2019-03-16T21:13:13.295Z,2.37
2019-03-16T21:15:55.271Z,2.27
2019-03-16T21:18:24.485Z,2.50
2019-03-16T21:20:53.237Z,2.67
2019-03-16T21:23:22.341Z,2.20
2019-03-16T21:25:51.016Z,2.37
2019-03-16T21:28:25.682Z,2.33
2019-03-16T21:30:57.582Z,2.10
2019-03-16T21:33:29.895Z,3.60
2019-03-16T21:35:56.536Z,2.20
2019-03-16T21:38:25.350Z,2.10
2019-03-16T21:40:54.358Z,1.90
2019-03-16T21:43:24.918Z,2.60
2019-03-16T21:45:53.498Z,2.37
2019-03-16T21:48:23.876Z,2.13
2019-03-16T21:50:57.768Z,2.17
2019-03-16T21:53:30.104Z,2.13
2019-03-16T21:56:03.778Z,2.40
2019-03-16T21:58:32.410Z,2.33
2019-03-16T22:01:08.565Z,2.17
2019-03-16T22:03:42.064Z,2.40
2019-03-16T22:06:08.248Z,2.27
2019-03-16T22:08:38.885Z,2.07
2019-03-16T22:11:07.972Z,2.77
2019-03-16T22:13:37.138Z,2.10
2019-03-16T22:16:11.701Z,1.93
2019-03-16T22:18:40.885Z,2.47
2019-03-16T22:21:09.442Z,1.80
2019-03-16T22:23:38.362Z,2.63
2019-03-16T22:26:08.818Z,2.20
2019-03-16T22:28:38.801Z,2.87
2019-03-16T22:31:17.475Z,2.10
2019-03-16T22:33:54.483Z,2.47
2019-03-16T22:36:23.130Z,1.90
2019-03-16T22:38:57.808Z,2.10
2019-03-16T22:41:26.278Z,3.10
2019-03-16T22:43:56.798Z,2.60
2019-03-16T22:46:25.177Z,2.60
2019-03-16T22:48:53.940Z,2.03
2019-03-16T22:51:22.577Z,2.70
2019-03-16T22:53:51.219Z,3.30
2019-03-16T22:56:21.644Z,2.00
2019-03-16T22:58:50.335Z,1.70
2019-03-16T23:01:19.145Z,1.60
2019-03-16T23:03:51.274Z,1.80
2019-03-16T23:06:19.993Z,2.20
2019-03-16T23:08:48.769Z,1.70
2019-03-16T23:11:17.443Z,1.80
2019-03-16T23:13:49.103Z,1.77
2019-03-16T23:16:18.910Z,1.70
2019-03-16T23:18:47.847Z,1.60
2019-03-16T23:21:21.911Z,1.87
2019-03-16T23:23:54.867Z,1.70
2019-03-16T23:26:37.660Z,1.57
2019-03-16T23:28:57.789Z,1.83
2019-03-16T23:31:26.465Z,1.70
2019-03-16T23:33:55.315Z,1.50
2019-03-16T23:36:26.784Z,1.57
2019-03-16T23:39:02.719Z,1.50
2019-03-16T23:41:34.166Z,1.60
2019-03-16T23:44:03.114Z,1.63
2019-03-16T23:46:31.812Z,1.70
2019-03-16T23:49:03.904Z,1.60
2019-03-16T23:51:42.038Z,1.60
2019-03-16T23:54:10.814Z,1.33
2019-03-16T23:56:39.309Z,1.70
2019-03-16T23:59:08.323Z,1.50
